Time;durP1;ratioP1;P1;durP2;ratioP2;P2;SDS_P1;SDS_P2;PMS_P1;PMS_P2;Temp;Humidity;BMP_temperature;BMP_pressure;BME280_temperature;BME280_humidity;BME280_pressure;Samples;Min_cycle;Max_cycle;Signal;HPM_P1;HPM_P2
2022/10/28 07:39:53;;;;;;;62.53;28.15;;;;;;;13.26;100.00;99684.75;5150350;27;20408;-76
2022/10/28 07:42:20;;;;;;;19.15;7.18;;;;;;;13.07;100.00;99678.00;5147129;27;20134;-76
2022/10/28 07:44:46;;;;;;;21.15;5.38;;;;;;;12.97;100.00;99683.72;5149066;27;20047;-77
2022/10/28 07:47:13;;;;;;;23.17;4.75;;;;;;;12.79;100.00;99670.44;5134344;27;20055;-76
2022/10/28 07:49:39;;;;;;;18.27;4.13;;;;;;;12.72;100.00;99688.59;5141877;27;20057;-76
2022/10/28 07:52:06;;;;;;;20.98;5.65;;;;;;;13.01;100.00;99715.06;5148416;27;20058;-76
2022/10/28 07:54:33;;;;;;;11.98;4.90;;;;;;;13.15;100.00;99721.56;5149320;27;20053;-76
2022/10/28 07:57:00;;;;;;;11.40;3.67;;;;;;;13.38;100.00;99720.66;5149426;27;20042;-77
2022/10/28 07:59:27;;;;;;;10.10;4.10;;;;;;;13.43;100.00;99705.41;5140193;27;20049;-77
2022/10/28 08:01:54;;;;;;;5.82;3.33;;;;;;;13.54;100.00;99684.09;5138835;27;20054;-77
2022/10/28 08:04:20;;;;;;;12.30;3.20;;;;;;;13.76;100.00;99704.09;5148524;27;20047;-76
2022/10/28 08:06:47;;;;;;;13.85;3.55;;;;;;;13.77;100.00;99686.66;5149230;27;20053;-76
2022/10/28 08:09:13;;;;;;;13.02;3.08;;;;;;;13.85;100.00;99697.50;5147638;27;20058;-77
2022/10/28 08:11:40;;;;;;;9.70;3.08;;;;;;;13.96;100.00;99686.03;5147866;27;20057;-76
2022/10/28 08:14:08;;;;;;;16.83;3.72;;;;;;;13.97;100.00;99667.75;5147966;27;20054;-79
2022/10/28 08:16:35;;;;;;;26.45;3.63;;;;;;;14.05;100.00;99662.16;5148019;27;20107;-77
2022/10/28 08:19:01;;;;;;;10.02;2.63;;;;;;;14.32;100.00;99689.75;5143120;27;20401;-77
2022/10/28 08:21:28;;;;;;;11.80;2.72;;;;;;;14.39;100.00;99678.88;5147697;27;20047;-77
2022/10/28 08:23:55;;;;;;;10.75;2.35;;;;;;;14.52;100.00;99689.94;5147896;27;20493;-77
2022/10/28 08:26:21;;;;;;;7.13;2.60;;;;;;;14.64;100.00;99706.69;5148812;27;20359;-78
2022/10/28 08:28:48;;;;;;;12.73;3.17;;;;;;;14.76;100.00;99717.94;5147777;27;20078;-78
2022/10/28 08:31:16;;;;;;;10.18;2.67;;;;;;;14.82;100.00;99717.13;5148289;27;20054;-77
2022/10/28 08:33:44;;;;;;;18.40;6.28;;;;;;;14.78;100.00;99711.19;5147801;27;20126;-78
2022/10/28 08:36:12;;;;;;;13.63;5.70;;;;;;;14.85;100.00;99712.09;5141020;27;20065;-77
2022/10/28 08:38:39;;;;;;;18.80;4.55;;;;;;;14.94;100.00;99706.47;5145299;27;20039;-77
2022/10/28 08:41:17;;;;;;;21.50;5.15;;;;;;;14.99;100.00;99704.81;5148602;27;20047;-77
2022/10/28 08:44:00;;;;;;;14.55;4.80;;;;;;;15.00;100.00;99697.47;5147484;27;20086;-78
2022/10/28 08:46:47;;;;;;;10.40;3.83;;;;;;;15.07;100.00;99692.88;5148198;27;20055;-77
2022/10/28 08:49:18;;;;;;;11.45;4.53;;;;;;;15.27;100.00;99697.63;5143985;27;20061;-78
2022/10/28 08:51:49;;;;;;;9.45;3.58;;;;;;;15.29;100.00;99673.63;5125228;27;20051;-77
2022/10/28 08:54:20;;;;;;;6.88;2.42;;;;;;;15.51;100.00;99709.97;5133487;27;20054;-77
2022/10/28 08:56:48;;;;;;;4.65;2.28;;;;;;;15.65;100.00;99710.88;5134536;27;20051;-77
2022/10/28 08:59:19;;;;;;;10.73;2.17;;;;;;;15.79;100.00;99696.16;5131793;27;20478;-77
2022/10/28 09:01:50;;;;;;;11.98;3.30;;;;;;;16.01;100.00;99690.56;5134325;27;20664;-78
2022/10/28 09:04:26;;;;;;;18.23;4.53;;;;;;;16.15;100.00;99700.47;5120167;27;20047;-78
2022/10/28 09:06:53;;;;;;;16.13;4.47;;;;;;;16.18;100.00;99680.03;5133718;27;20043;-78
2022/10/28 09:09:22;;;;;;;11.95;2.90;;;;;;;16.49;100.00;99701.38;5134251;27;20478;-78
2022/10/28 09:12:02;;;;;;;4.72;2.03;;;;;;;16.72;93.21;99697.38;5134455;27;20553;-78
2022/10/28 09:14:38;;;;;;;8.70;1.77;;;;;;;17.01;90.79;99707.06;5124321;27;20047;-78
2022/10/28 09:17:16;;;;;;;5.75;2.15;;;;;;;17.25;88.47;99721.19;5134349;27;20489;-78
2022/10/28 09:19:48;;;;;;;10.05;2.10;;;;;;;17.37;87.64;99713.13;5133767;27;20497;-78
2022/10/28 09:22:24;;;;;;;9.32;1.77;;;;;;;17.33;87.21;99719.06;5129514;27;20067;-78
2022/10/28 09:24:56;;;;;;;6.72;2.00;;;;;;;17.41;86.16;99720.72;5131155;27;20055;-78
2022/10/28 09:27:46;;;;;;;3.90;1.65;;;;;;;17.51;94.45;99737.59;5133038;27;20401;-78
2022/10/28 09:30:26;;;;;;;5.22;1.92;;;;;;;17.59;91.11;99713.69;5133802;27;20043;-78
2022/10/28 09:33:06;;;;;;;7.75;1.73;;;;;;;17.51;91.10;99662.56;5132903;27;20054;-78
2022/10/28 09:35:40;;;;;;;8.90;1.58;;;;;;;17.48;84.90;99624.50;5125352;27;20492;-78
2022/10/28 09:38:15;;;;;;;6.90;1.75;;;;;;;17.53;83.88;99687.91;5123431;27;20040;-78
2022/10/28 09:40:49;;;;;;;7.55;1.40;;;;;;;17.48;89.63;99674.81;5130438;27;20051;-78
2022/10/28 09:43:23;;;;;;;6.38;2.03;;;;;;;17.31;92.72;99649.75;5132847;27;20051;-78
2022/10/28 09:45:53;;;;;;;12.68;1.92;;;;;;;17.39;88.23;99656.88;5128839;27;20049;-78
2022/10/28 09:48:25;;;;;;;9.38;1.92;;;;;;;17.34;86.10;99640.19;5131411;27;20051;-77
2022/10/28 09:50:54;;;;;;;9.45;1.95;;;;;;;17.56;81.08;99635.25;5133255;27;20061;-77
2022/10/28 09:53:31;;;;;;;2.90;1.83;;;;;;;17.73;79.24;99637.47;5132750;27;20482;-77
2022/10/28 09:55:57;;;;;;;5.45;1.75;;;;;;;18.00;79.31;99666.53;5123456;27;20122;-78
2022/10/28 09:58:24;;;;;;;11.63;2.00;;;;;;;18.28;75.87;99670.78;5128655;27;20678;-77
2022/10/28 10:00:51;;;;;;;8.98;1.35;;;;;;;18.43;76.94;99672.38;5126595;27;20051;-78
2022/10/28 10:03:17;;;;;;;7.15;1.75;;;;;;;18.66;76.09;99669.84;5131977;27;20049;-78
2022/10/28 10:05:49;;;;;;;5.13;1.67;;;;;;;18.61;76.76;99641.28;5132995;27;20071;-78
2022/10/28 10:08:18;;;;;;;7.22;1.85;;;;;;;18.78;75.06;99671.88;5133247;27;20082;-77
2022/10/28 10:10:49;;;;;;;11.02;2.30;;;;;;;18.70;74.36;99662.00;5126767;27;20055;-78
2022/10/28 10:13:21;;;;;;;13.88;2.20;;;;;;;18.98;78.52;99683.56;5127224;27;20081;-78
2022/10/28 10:15:52;;;;;;;12.70;2.20;;;;;;;18.86;78.84;99660.59;5127068;27;20512;-78
2022/10/28 10:18:23;;;;;;;9.05;1.92;;;;;;;19.09;78.44;99691.09;5111437;27;20490;-78
2022/10/28 10:20:54;;;;;;;9.60;2.22;;;;;;;19.14;71.33;99664.75;5114734;27;20044;-77
2022/10/28 10:23:29;;;;;;;6.80;1.80;;;;;;;19.38;73.64;99663.81;5123787;27;20081;-78
2022/10/28 10:25:58;;;;;;;4.35;1.73;;;;;;;19.42;70.43;99659.53;5132537;27;20405;-78
2022/10/28 10:28:26;;;;;;;10.02;2.00;;;;;;;19.58;68.95;99695.84;5132218;27;20055;-78
2022/10/28 10:30:55;;;;;;;6.43;2.10;;;;;;;19.54;67.86;99683.56;5132653;27;20047;-78
2022/10/28 10:33:25;;;;;;;8.13;2.08;;;;;;;19.69;67.37;99686.78;5129642;27;20047;-76
2022/10/28 10:36:00;;;;;;;9.70;2.00;;;;;;;19.47;69.16;99680.06;5132391;27;20054;-78
2022/10/28 10:38:28;;;;;;;5.82;1.52;;;;;;;19.43;70.53;99698.97;5124156;27;20039;-78
2022/10/28 10:40:55;;;;;;;3.78;1.42;;;;;;;19.31;75.73;99676.84;5131979;27;20145;-78
2022/10/28 10:43:29;;;;;;;6.22;1.85;;;;;;;19.23;71.84;99624.78;5121849;27;20043;-78
2022/10/28 10:46:01;;;;;;;9.55;2.00;;;;;;;19.30;72.94;99631.06;5132226;27;20047;-78
2022/10/28 10:48:28;;;;;;;9.43;2.22;;;;;;;19.32;72.16;99663.91;5130686;27;20050;-78
2022/10/28 10:50:57;;;;;;;6.43;1.63;;;;;;;19.32;70.52;99637.19;5132386;27;20050;-78
2022/10/28 10:53:25;;;;;;;6.60;2.05;;;;;;;19.44;68.05;99656.56;5129146;27;20047;-78
2022/10/28 10:55:54;;;;;;;7.78;1.80;;;;;;;19.58;67.31;99648.94;5131868;27;20050;-78
2022/10/28 10:58:23;;;;;;;9.27;1.88;;;;;;;19.73;68.75;99637.50;5129961;27;20052;-78
2022/10/28 11:00:52;;;;;;;5.43;1.90;;;;;;;20.01;66.03;99655.38;5131813;27;20046;-78
2022/10/28 11:03:22;;;;;;;10.15;1.50;;;;;;;20.23;67.57;99699.84;5130179;27;20054;-78
2022/10/28 11:05:52;;;;;;;6.57;1.63;;;;;;;20.05;69.39;99674.00;5122971;27;20043;-78
2022/10/28 11:08:31;;;;;;;11.32;1.98;;;;;;;20.13;68.51;99706.78;5131881;27;20047;-78
2022/10/28 11:11:06;;;;;;;6.05;1.50;;;;;;;19.89;71.98;99686.53;5132179;27;20051;-78
2022/10/28 11:13:34;;;;;;;5.90;2.47;;;;;;;19.87;74.29;99683.19;5128803;27;20474;-78
2022/10/28 11:16:02;;;;;;;10.18;2.42;;;;;;;19.90;76.39;99677.19;5127364;27;20054;-78
2022/10/28 11:18:30;;;;;;;7.82;2.00;;;;;;;19.72;76.78;99605.47;5131526;27;20078;-78
2022/10/28 11:21:05;;;;;;;7.40;2.17;;;;;;;19.58;75.44;99588.28;5131999;27;20439;-78
2022/10/28 11:23:46;;;;;;;8.52;1.65;;;;;;;19.48;72.29;99593.50;5122361;27;20051;-78
2022/10/28 11:26:16;;;;;;;10.10;2.17;;;;;;;19.57;73.62;99615.03;5131582;27;20085;-78
2022/10/28 11:28:56;;;;;;;10.73;2.00;;;;;;;19.66;73.75;99634.84;5131403;27;20050;-78
2022/10/28 11:31:45;;;;;;;11.52;2.15;;;;;;;19.75;74.62;99638.09;5111156;28;20051;-78
2022/10/28 11:34:37;;;;;;;9.85;1.77;;;;;;;19.72;74.22;99630.28;5118743;27;20051;-78
2022/10/28 11:37:14;;;;;;;4.65;2.22;;;;;;;19.78;73.02;99652.31;5131719;28;20470;-78
2022/10/28 11:39:54;;;;;;;7.13;2.03;;;;;;;19.74;74.38;99639.19;5131138;28;20405;-78
2022/10/28 11:42:32;;;;;;;7.90;1.85;;;;;;;19.78;76.48;99630.25;5129124;28;20497;-78
2022/10/28 11:45:05;;;;;;;18.45;2.40;;;;;;;19.79;78.37;99611.78;5131154;27;20047;-78
2022/10/28 11:48:00;;;;;;;8.32;2.58;;;;;;;19.61;77.87;99604.34;5109030;28;20053;-78
2022/10/28 11:50:38;;;;;;;12.45;2.25;;;;;;;19.51;79.97;99596.66;5113116;27;20039;-78
2022/10/28 11:53:25;;;;;;;2.95;1.75;;;;;;;19.42;76.90;99568.56;5123456;28;20136;-78
2022/10/28 11:56:01;;;;;;;8.15;1.73;;;;;;;19.53;77.82;99580.72;5131416;27;20069;-78
2022/10/28 11:58:39;;;;;;;6.10;1.85;;;;;;;19.39;78.03;99582.81;5131009;27;20397;-78
2022/10/28 12:01:42;;;;;;;7.03;2.03;;;;;;;19.41;76.35;99602.72;5110964;28;20050;-78
2022/10/28 12:04:25;;;;;;;5.03;1.67;;;;;;;19.57;75.91;99614.16;5124591;27;20086;-78
2022/10/28 12:07:16;;;;;;;5.85;1.77;;;;;;;19.68;75.48;99616.16;5129871;27;20500;-78
2022/10/28 12:09:57;;;;;;;13.32;2.00;;;;;;;19.76;75.80;99606.69;5124423;27;20130;-78
2022/10/28 12:12:33;;;;;;;10.38;1.55;;;;;;;19.77;81.74;99575.28;5129660;27;20169;-78
2022/10/28 12:15:13;;;;;;;14.35;2.05;;;;;;;20.00;79.02;99599.34;5127007;27;20063;-78
2022/10/28 12:17:47;;;;;;;5.97;1.85;;;;;;;20.09;77.39;99597.09;5110453;28;20058;-78
2022/10/28 12:20:21;;;;;;;9.43;2.17;;;;;;;20.14;76.38;99598.09;5110899;28;20054;-78
2022/10/28 12:22:52;;;;;;;6.55;1.73;;;;;;;20.11;73.47;99573.72;5109397;28;20099;-78
2022/10/28 12:25:23;;;;;;;7.35;1.95;;;;;;;20.27;75.58;99585.13;5131040;27;20047;-78
2022/10/28 12:27:54;;;;;;;7.10;1.75;;;;;;;20.41;72.99;99588.50;5134785;27;20052;-78
2022/10/28 12:30:24;;;;;;;9.63;1.95;;;;;;;20.51;71.74;99581.28;5134828;27;20139;-78
2022/10/28 12:32:54;;;;;;;9.95;1.98;;;;;;;20.88;73.37;99607.00;5132385;27;20059;-78
2022/10/28 12:35:25;;;;;;;4.25;1.42;;;;;;;21.00;73.47;99596.78;5134667;27;20075;-79
2022/10/28 12:37:57;;;;;;;8.38;2.63;;;;;;;21.06;75.49;99586.69;5134326;27;20145;-79
2022/10/28 12:40:26;;;;;;;5.88;1.60;;;;;;;20.96;71.00;99579.03;5132910;27;20061;-79
2022/10/28 12:42:59;;;;;;;11.55;1.80;;;;;;;20.94;71.13;99559.91;5130245;27;22261;-78
2022/10/28 12:45:30;;;;;;;7.47;1.83;;;;;;;21.01;71.92;99573.59;5133896;27;20050;-78
2022/10/28 12:48:04;;;;;;;5.90;1.60;;;;;;;21.06;69.51;99565.41;5133830;27;20080;-79
2022/10/28 12:50:37;;;;;;;7.10;1.65;;;;;;;21.12;69.51;99575.50;5134331;27;20043;-79
2022/10/28 12:53:20;;;;;;;10.50;2.03;;;;;;;21.13;70.32;99557.81;5129381;27;20051;-78
2022/10/28 12:55:51;;;;;;;6.07;2.90;;;;;;;21.47;70.97;99577.31;5128164;27;20059;-78
2022/10/28 12:58:23;;;;;;;6.43;1.50;;;;;;;21.46;69.17;99553.50;5132613;27;20500;-78
2022/10/28 13:00:55;;;;;;;8.90;1.77;;;;;;;21.60;70.04;99570.66;5134723;27;20409;-78
2022/10/28 13:03:21;;;;;;;5.13;1.50;;;;;;;21.69;66.53;99557.25;5129562;27;20040;-78
2022/10/28 13:05:57;;;;;;;14.43;3.42;;;;;;;21.76;65.95;99546.88;5128126;27;20043;-78
2022/10/28 13:08:48;;;;;;;11.18;1.80;;;;;;;21.93;64.88;99549.66;5126885;27;20562;-79
2022/10/28 13:11:57;;;;;;;7.45;1.73;;;;;;;22.05;64.88;99563.44;5129328;27;20043;-79
2022/10/28 13:14:46;;;;;;;7.18;2.28;;;;;;;21.94;65.75;99551.34;5129996;27;20075;-78
2022/10/28 13:17:27;;;;;;;6.47;1.70;;;;;;;21.92;64.50;99539.69;5134234;27;20053;-78
2022/10/28 13:20:15;;;;;;;14.85;1.80;;;;;;;21.97;63.86;99552.78;5131053;27;20043;-79
2022/10/28 13:22:53;;;;;;;5.88;1.98;;;;;;;21.95;65.41;99541.97;5123909;27;20505;-78
2022/10/28 13:25:58;;;;;;;8.85;1.80;;;;;;;22.09;65.25;99556.31;5133698;27;20043;-79
2022/10/28 13:28:31;;;;;;;9.88;1.95;;;;;;;22.10;65.89;99553.28;5125457;27;20078;-79
2022/10/28 13:31:02;;;;;;;8.45;2.00;;;;;;;22.24;66.27;99556.56;5120087;27;20043;-79
2022/10/28 13:33:30;;;;;;;6.90;1.60;;;;;;;22.11;66.57;99537.50;5132961;27;20054;-79
2022/10/28 13:36:10;;;;;;;13.27;2.10;;;;;;;22.25;66.13;99558.25;5133436;27;20493;-79
2022/10/28 13:38:38;;;;;;;9.45;2.00;;;;;;;22.24;64.82;99553.78;5128129;27;20490;-79
2022/10/28 13:41:30;;;;;;;11.57;1.80;;;;;;;22.31;66.02;99548.13;5133463;27;20478;-79
2022/10/28 13:44:13;;;;;;;18.63;2.17;;;;;;;22.33;66.06;99570.84;5133096;27;20047;-79
2022/10/28 13:47:23;;;;;;;7.57;1.65;;;;;;;22.43;67.30;99551.63;5132086;27;20501;-79
2022/10/28 13:50:33;;;;;;;7.03;1.70;;;;;;;22.46;66.18;99550.25;5127746;27;20043;-79
2022/10/28 13:53:42;;;;;;;7.35;1.85;;;;;;;22.48;66.02;99552.78;5133113;27;20099;-79
2022/10/28 13:56:18;;;;;;;8.55;1.77;;;;;;;22.48;65.70;99556.41;5130062;27;20062;-78
2022/10/28 13:58:51;;;;;;;5.13;1.70;;;;;;;22.49;65.64;99555.28;5131871;27;20047;-79
2022/10/28 14:01:54;;;;;;;7.90;2.70;;;;;;;22.43;65.03;99557.16;5133015;27;20051;-79
2022/10/28 14:04:26;;;;;;;9.88;2.55;;;;;;;22.13;65.55;99538.13;5131893;27;20047;-79
2022/10/28 14:07:19;;;;;;;8.90;2.30;;;;;;;22.20;65.15;99560.91;5112334;27;20061;-79
2022/10/28 14:09:46;;;;;;;9.20;1.83;;;;;;;21.97;65.74;99547.25;5123795;27;20059;-79
2022/10/28 14:12:18;;;;;;;8.43;1.90;;;;;;;22.02;64.68;99569.47;5129478;27;20053;-79
2022/10/28 14:14:55;;;;;;;6.05;1.70;;;;;;;22.03;65.76;99573.94;5132933;27;20054;-79
2022/10/28 14:17:25;;;;;;;5.57;1.60;;;;;;;21.83;65.13;99569.72;5129021;27;21077;-79
2022/10/28 14:19:54;;;;;;;9.57;2.83;;;;;;;21.77;66.75;99562.41;5126562;27;20058;-79
2022/10/28 14:22:29;;;;;;;4.97;2.00;;;;;;;21.54;66.31;99539.31;5132034;27;20519;-79
2022/10/28 14:24:56;;;;;;;9.57;2.33;;;;;;;21.68;67.63;99580.47;5132878;27;20047;-79
2022/10/28 14:27:29;;;;;;;10.90;2.17;;;;;;;21.51;69.19;99575.75;5129490;27;20047;-79
2022/10/28 14:30:22;;;;;;;8.88;1.98;;;;;;;21.43;75.72;99578.88;5127946;27;20043;-78
2022/10/28 14:33:26;;;;;;;7.75;2.20;;;;;;;21.26;77.52;99600.06;5125884;27;20051;-79
2022/10/28 14:36:13;;;;;;;9.40;3.10;;;;;;;21.03;80.66;99576.94;5078697;27;20125;-79
2022/10/28 14:39:17;;;;;;;10.63;2.10;;;;;;;21.01;82.47;99590.16;5131113;27;20059;-79
2022/10/28 14:41:57;;;;;;;8.73;1.85;;;;;;;20.94;82.05;99589.47;5125860;27;20086;-79
2022/10/28 14:44:41;;;;;;;8.00;2.10;;;;;;;20.76;85.70;99574.72;5131780;27;20129;-78
2022/10/28 14:47:31;;;;;;;6.82;1.77;;;;;;;20.75;85.05;99564.75;5129687;27;20158;-79
2022/10/28 14:50:01;;;;;;;8.40;2.00;;;;;;;20.60;86.75;99570.72;5126528;27;20051;-78
2022/10/28 14:52:33;;;;;;;10.15;2.10;;;;;;;20.76;80.06;99573.88;5131410;27;20055;-78
2022/10/28 14:55:03;;;;;;;10.35;1.95;;;;;;;20.65;83.76;99576.38;5132524;27;20489;-79
2022/10/28 14:57:31;;;;;;;11.77;2.03;;;;;;;20.64;85.89;99565.56;5127933;27;20062;-78
2022/10/28 15:00:01;;;;;;;9.63;2.03;;;;;;;;;;5127658;27;20222;-79
2022/10/28 15:02:28;;;;;;;9.52;2.38;;;;;;;20.47;78.12;99560.78;5131061;27;20057;-79
2022/10/28 15:05:01;;;;;;;10.45;2.22;;;;;;;20.48;74.96;99550.56;5131859;27;20054;-79
2022/10/28 15:07:30;;;;;;;7.38;2.03;;;;;;;20.49;77.81;99557.78;5120824;27;20084;-79
2022/10/28 15:09:57;;;;;;;7.45;2.13;;;;;;;20.54;73.81;99568.94;5130062;27;20058;-78
2022/10/28 15:12:27;;;;;;;11.55;2.13;;;;;;;20.43;75.08;99569.75;5130053;27;20136;-79
2022/10/28 15:14:55;;;;;;;6.32;2.03;;;;;;;20.45;79.35;99576.72;5132065;27;20047;-79
2022/10/28 15:17:24;;;;;;;10.57;2.33;;;;;;;20.37;77.99;99554.16;5129246;27;20077;-78
2022/10/28 15:19:52;;;;;;;11.77;1.70;;;;;;;20.25;79.52;99546.72;5125935;27;20057;-79
2022/10/28 15:22:21;;;;;;;7.65;1.75;;;;;;;20.12;81.89;99541.44;5130628;27;20054;-79
2022/10/28 15:24:59;;;;;;;6.45;1.83;;;;;;;20.09;80.47;99531.69;5126394;27;20055;-79
2022/10/28 15:27:28;;;;;;;9.40;1.95;;;;;;;20.01;79.91;99523.78;5128506;27;20051;-79
2022/10/28 15:29:56;;;;;;;9.40;1.77;;;;;;;20.05;78.63;99549.81;5126756;27;20133;-79
2022/10/28 15:32:31;;;;;;;7.72;1.60;;;;;;;20.03;76.34;99538.19;5131036;27;20141;-79
2022/10/28 15:34:58;;;;;;;4.40;1.70;;;;;;;20.09;75.30;99542.75;5131658;27;20155;-78
2022/10/28 15:37:28;;;;;;;5.22;1.67;;;;;;;19.96;74.52;99530.03;5130368;27;20057;-78
2022/10/28 15:42:56;;;;;;;10.25;3.08;;;;;;;19.89;74.30;99525.69;5065460;27;20404;-78
2022/10/28 15:45:25;;;;;;;11.02;2.13;;;;;;;19.85;76.70;99546.56;5026500;28;20060;-78
2022/10/28 15:47:52;;;;;;;16.40;2.60;;;;;;;19.80;77.03;99547.25;5026221;28;20041;-78
2022/10/28 15:50:31;;;;;;;9.18;2.10;;;;;;;19.69;75.29;99543.38;5026927;28;20424;-78
2022/10/28 15:53:21;;;;;;;7.63;2.10;;;;;;;19.71;76.36;99543.13;5021524;28;20141;-78
2022/10/28 15:55:47;;;;;;;;;;;;;;;19.64;75.55;99546.81;5017365;28;20496;-79
2022/10/28 15:58:46;;;;;;;7.53;2.00;;;;;;;19.47;76.67;99528.44;5020300;28;20291;-78
2022/10/28 16:01:29;;;;;;;9.02;2.08;;;;;;;19.51;78.22;99535.13;5078820;28;20051;-79
2022/10/28 16:03:56;;;;;;;6.60;1.92;;;;;;;19.41;78.34;99519.19;5028429;28;20050;-79
2022/10/28 16:06:26;;;;;;;5.35;1.80;;;;;;;19.28;79.96;99536.72;5062231;28;20056;-79
2022/10/28 16:09:02;;;;;;;6.50;1.50;;;;;;;19.25;76.34;99524.28;5055244;27;20050;-78
2022/10/28 16:11:35;;;;;;;6.47;1.55;;;;;;;19.33;77.58;99547.06;5041514;28;20053;-78
2022/10/28 16:14:17;;;;;;;4.72;1.48;;;;;;;19.19;77.20;99532.63;5022341;28;20128;-78
2022/10/28 16:16:44;;;;;;;9.82;2.30;;;;;;;19.06;78.35;99533.66;5026015;28;20049;-78
2022/10/28 16:19:28;;;;;;;8.35;1.33;;;;;;;19.12;79.36;99564.94;5026060;28;20445;-78
2022/10/28 16:21:55;;;;;;;9.32;1.98;;;;;;;19.06;82.35;99553.75;5024642;28;20049;-79
2022/10/28 16:24:22;;;;;;;8.00;1.95;;;;;;;18.89;85.51;99553.56;5021195;28;20050;-79
2022/10/28 16:26:48;;;;;;;10.15;2.17;;;;;;;18.78;89.84;99559.78;5024452;28;20137;-79
2022/10/28 16:29:16;;;;;;;9.57;2.20;;;;;;;18.54;92.51;99559.59;5029439;28;20140;-79
2022/10/28 16:31:44;;;;;;;8.05;2.33;;;;;;;18.40;92.21;99550.66;5022251;28;20046;-79
2022/10/28 16:34:14;;;;;;;7.95;2.25;;;;;;;18.39;92.82;99567.38;5022917;28;20519;-78
2022/10/28 16:36:40;;;;;;;11.30;2.30;;;;;;;18.19;93.74;99535.38;5021744;28;20049;-79
2022/10/28 16:39:11;;;;;;;10.18;2.00;;;;;;;18.27;95.31;99561.78;5022661;28;20531;-79
2022/10/28 16:41:39;;;;;;;9.63;2.40;;;;;;;18.12;95.68;99553.88;5020783;27;20589;-78
2022/10/28 16:44:09;;;;;;;11.73;3.00;;;;;;;18.00;97.25;99569.41;5024033;28;20095;-79
2022/10/28 16:46:37;;;;;;;10.57;2.30;;;;;;;17.82;97.00;99567.41;5022681;28;20052;-79
2022/10/28 16:49:04;;;;;;;5.75;2.38;;;;;;;17.72;98.40;99564.28;5023635;28;20056;-78
2022/10/28 16:51:30;;;;;;;11.45;3.03;;;;;;;17.89;98.42;99578.38;5022816;28;20045;-79
2022/10/28 16:53:58;;;;;;;7.95;2.63;;;;;;;17.61;100.00;99572.19;5010947;28;20125;-79
2022/10/28 16:56:25;;;;;;;9.50;3.72;;;;;;;17.59;100.00;99598.22;5030780;28;20059;-79
2022/10/28 16:58:51;;;;;;;10.85;2.80;;;;;;;17.62;100.00;99598.63;5072459;28;20069;-80
2022/10/28 17:01:20;;;;;;;6.30;2.30;;;;;;;17.46;100.00;99597.25;5051972;28;20046;-78
2022/10/28 17:03:48;;;;;;;9.13;2.42;;;;;;;17.42;100.00;99611.63;5009303;28;20050;-79
2022/10/28 17:06:15;;;;;;;7.40;2.53;;;;;;;17.36;100.00;99596.00;5009796;28;20054;-78
2022/10/28 17:08:41;;;;;;;13.70;2.95;;;;;;;17.05;100.00;99584.72;5009799;28;20046;-78
2022/10/28 17:11:13;;;;;;;5.30;2.67;;;;;;;16.97;100.00;99577.56;5011399;28;20158;-77
2022/10/28 17:13:40;;;;;;;24.52;12.25;;;;;;;17.09;100.00;99591.47;5046892;28;20054;-78
2022/10/28 17:16:07;;;;;;;11.93;3.88;;;;;;;17.00;100.00;99598.28;5008055;28;20050;-77
2022/10/28 17:18:34;;;;;;;11.55;3.13;;;;;;;16.80;100.00;99596.41;5006477;28;20050;-77
2022/10/28 17:21:02;;;;;;;9.45;3.58;;;;;;;16.48;100.00;99562.47;5007146;28;20519;-77
2022/10/28 17:23:29;;;;;;;13.70;3.70;;;;;;;16.47;100.00;99582.75;5001291;28;20053;-77
2022/10/28 17:25:57;;;;;;;10.45;4.13;;;;;;;16.46;100.00;99581.88;5053643;28;20055;-77
2022/10/28 17:28:24;;;;;;;14.65;3.70;;;;;;;16.58;100.00;99600.47;5004788;28;20053;-78
2022/10/28 17:30:51;;;;;;;11.15;3.08;;;;;;;16.30;100.00;99578.75;5007558;28;20058;-78
2022/10/28 17:33:17;;;;;;;9.38;2.97;;;;;;;16.12;100.00;99582.13;5005974;28;20552;-78
2022/10/28 17:35:46;;;;;;;11.48;3.20;;;;;;;16.16;100.00;99578.75;5005398;28;20061;-78
2022/10/28 17:38:14;;;;;;;19.08;3.88;;;;;;;16.30;100.00;99589.72;5004468;28;20511;-78
2022/10/28 17:40:41;;;;;;;11.13;2.90;;;;;;;16.23;100.00;99596.06;5007356;28;20076;-78
2022/10/28 17:43:07;;;;;;;8.52;2.80;;;;;;;15.96;100.00;99602.56;5002961;28;20388;-77
2022/10/28 17:45:34;;;;;;;11.85;3.97;;;;;;;15.96;100.00;99614.41;5060754;28;20441;-78
2022/10/28 17:48:00;;;;;;;12.18;2.35;;;;;;;15.84;100.00;99600.47;5007506;28;20054;-78
2022/10/28 17:50:27;;;;;;;10.13;2.80;;;;;;;15.97;100.00;99613.31;5007256;28;20053;-78
2022/10/28 17:52:54;;;;;;;7.50;3.47;;;;;;;15.79;100.00;99589.25;5049440;28;20126;-77
2022/10/28 17:55:21;;;;;;;10.60;2.40;;;;;;;15.71;100.00;99595.75;5013091;28;20062;-78
2022/10/28 17:57:48;;;;;;;9.70;2.85;;;;;;;15.73;100.00;99612.00;5002964;28;20470;-78
2022/10/28 18:00:15;;;;;;;13.63;2.10;;;;;;;15.60;100.00;99609.22;5007147;28;20042;-78
2022/10/28 18:02:42;;;;;;;5.93;3.10;;;;;;;15.53;100.00;99626.50;5010227;28;20053;-77
2022/10/28 18:05:09;;;;;;;12.73;2.85;;;;;;;15.39;100.00;99619.28;5056188;28;20130;-78
2022/10/28 18:07:35;;;;;;;6.60;3.13;;;;;;;15.28;100.00;99595.22;5023788;28;20043;-77
2022/10/28 18:10:02;;;;;;;13.20;5.22;;;;;;;15.24;100.00;99610.41;5109943;28;20051;-77
2022/10/28 18:12:30;;;;;;;14.07;6.78;;;;;;;15.30;100.00;99607.66;5063669;28;20042;-77
2022/10/28 18:14:56;;;;;;;12.65;4.63;;;;;;;15.30;100.00;99621.38;5006790;28;20136;-77
2022/10/28 18:17:23;;;;;;;12.60;2.83;;;;;;;15.31;100.00;99631.28;5006023;28;20060;-78
2022/10/28 18:19:49;;;;;;;9.35;2.17;;;;;;;15.28;100.00;99620.72;5005038;28;20485;-77
2022/10/28 18:22:16;;;;;;;9.90;2.70;;;;;;;15.03;100.00;99603.97;5005031;28;20057;-77
2022/10/28 18:24:42;;;;;;;17.20;3.63;;;;;;;15.05;100.00;99637.47;5003717;28;20061;-78
2022/10/28 18:27:09;;;;;;;8.60;3.55;;;;;;;14.98;100.00;99610.06;5036297;28;20058;-77
2022/10/28 18:29:37;;;;;;;10.38;2.85;;;;;;;15.01;100.00;99627.97;5006316;28;20049;-78
2022/10/28 18:32:04;;;;;;;6.85;2.42;;;;;;;14.99;100.00;99641.84;5006128;28;20052;-78
2022/10/28 18:34:31;;;;;;;9.13;4.07;;;;;;;14.95;100.00;99637.84;5002831;28;20386;-78
2022/10/28 18:36:57;;;;;;;11.40;4.15;;;;;;;14.90;100.00;99625.81;5005169;28;20052;-77
2022/10/28 18:39:24;;;;;;;14.52;3.70;;;;;;;14.87;100.00;99621.56;5010590;28;20046;-77
2022/10/28 18:41:50;;;;;;;10.55;3.00;;;;;;;14.84;100.00;99614.63;5006296;28;20473;-77
2022/10/28 18:44:20;;;;;;;9.18;3.95;;;;;;;14.71;100.00;99617.28;5003714;28;20555;-77
2022/10/28 18:46:50;;;;;;;10.25;5.93;;;;;;;14.56;100.00;99611.03;5006061;28;20461;-77
2022/10/28 18:49:16;;;;;;;22.30;8.77;;;;;;;14.63;100.00;99621.03;5005756;28;20145;-77
2022/10/28 18:51:43;;;;;;;13.20;8.15;;;;;;;14.57;100.00;99620.94;5004180;28;20052;-77
2022/10/28 18:54:09;;;;;;;9.27;5.30;;;;;;;14.60;100.00;99626.00;5002020;28;20169;-77
2022/10/28 18:56:36;;;;;;;13.75;5.32;;;;;;;14.65;100.00;99642.72;5004467;28;20133;-77
2022/10/28 18:59:04;;;;;;;13.43;4.40;;;;;;;14.39;100.00;99615.97;5006375;28;20054;-77
2022/10/28 19:01:31;;;;;;;11.23;4.20;;;;;;;14.39;100.00;99638.69;5005292;28;20132;-77
2022/10/28 19:04:01;;;;;;;10.90;4.55;;;;;;;14.21;100.00;99625.50;5002820;28;20042;-77
2022/10/28 19:06:30;;;;;;;11.07;5.13;;;;;;;14.22;100.00;99627.19;5006074;28;20056;-77
2022/10/28 19:08:58;;;;;;;10.20;4.47;;;;;;;14.25;100.00;99623.22;5006249;28;20364;-77
2022/10/28 19:11:28;;;;;;;12.02;4.63;;;;;;;14.20;100.00;99628.44;5019943;28;20051;-77
2022/10/28 19:13:56;;;;;;;7.13;3.97;;;;;;;14.12;100.00;99613.88;5014120;28;20501;-77
2022/10/28 19:16:22;;;;;;;10.68;4.07;;;;;;;14.22;100.00;99632.66;5009527;28;20419;-78
2022/10/28 19:18:49;;;;;;;10.07;4.03;;;;;;;14.36;100.00;99640.97;5005761;28;20077;-77
2022/10/28 19:21:17;;;;;;;10.57;4.75;;;;;;;14.17;100.00;99635.16;5018714;28;20071;-77
2022/10/28 19:23:44;;;;;;;12.23;4.45;;;;;;;14.08;100.00;99634.44;5006831;28;20046;-77
2022/10/28 19:26:12;;;;;;;13.98;4.95;;;;;;;14.00;100.00;99612.72;5022772;28;20057;-77
2022/10/28 19:28:40;;;;;;;18.30;4.82;;;;;;;14.07;100.00;99626.44;5019751;28;20164;-77
2022/10/28 19:31:09;;;;;;;16.60;5.47;;;;;;;14.07;100.00;99640.94;5009177;28;20050;-77
2022/10/28 19:33:37;;;;;;;16.55;4.60;;;;;;;13.83;100.00;99608.53;5004833;28;20097;-77